Lowder, Illinois
Current Conditions -  °F | °C
As of 6:52 AM on Thursday 23 Oct 2014 (Local Time) from KSPI Reporting Station
Clear Clear  
Wind Chill: 36°   Ceiling: Unl
Heat Index: 40°   Visibility: 10mi
Dew Point: 36°   Wind: 6mph
Humidity: 86%   Direction: 160°SSE
Pressure: 30.2"   Gusts: NA
Location:  39.55°N, 89.85°W
Report Text: KSPI 231152Z 16005KT 10SM CLR 04/02 A3020 RMK AO2 SLP230 T00440022 10061 20022 58001
Loading
Personal Weather Stations






























Interactive Weather Map
Tropical Storm Tracking
New forecast layout! Learn more

10-Day Weather Forecast

Advertisements
Track Severe Weather on mobile